Paris Le Bourget, France

3:56 PM CEST on June 25, 2017 (GMT +0200)
Le Bourget

Weather History for LFPB - January, 2014

Change the Weather History Date:

Tuesday, January 28, 2014

  Actual Average Record
Temperature  
Mean Temperature 40 °F -  
Max Temperature 44 °F 46 °F 60 °F (2002)
Min Temperature 37 °F 35 °F 19 °F (1998)
Degree Days  
Heating Degree Days 24    
Moisture  
Dew Point 37 °F    
Average Humidity 85    
Maximum Humidity 93    
Minimum Humidity 72    
Precipitation  
Precipitation 0.04 in 0.06 in - ()
Sea Level Pressure  
Sea Level Pressure 29.35 in    
Wind  
Wind Speed 11 mph ()    
Max Wind Speed 18 mph    
Max Gust Speed -    
Visibility 6.9 miles    
Events Rain    
Averages and records for this station are not official NWS values.
T = Trace of Precipitation, MM = Missing Value Source: Averaged Metar Reports

Daily Weather History Graph

Daily Weather History Graph

Search for Another Location

Airport or City:

Trip Planner

Search our weather history database for the weather conditions in past years. The results will help you decide how hot, cold, wet, or windy it might be!

Date:

Astronomy

Jan. 28, 2014 Rise Set
Actual Time 8:26 AM CET 5:40 PM CET
Civil Twilight 7:51 AM CET 6:15 PM CET
Nautical Twilight 7:13 AM CET 6:53 PM CET
Astronomical Twilight 6:36 AM CET 7:30 PM CET
Moon 5:56 AM CET (1/28) 3:10 PM CET (1/28)
Length of Visible Light 10h 23m
Length of Day
9h 14m
Waning Crescent, 9% of the Moon is Illuminated
Jan 28
Waning Crescent
Jan 30
New
Feb 6
First Quarter
Feb 15
Full
Feb 22
Last Quarter

Hourly Weather History & Observations

Time (CET) Temp. Windchill Dew Point Humidity Pressure Visibility Wind Dir Wind Speed Gust Speed Precip Events Conditions
12:00 AM 39 °F - 35 °F 78% 29.47 in 31 mi SSW 9.2 mph - -   Clear
12:00 AM 39.2 °F 33.0 °F 33.8 °F 81% 29.44 in 6.2 mi SSW 9.2 mph - N/A   Scattered Clouds
12:30 AM 39.2 °F 33.6 °F 33.8 °F 81% 29.44 in 6.2 mi SSW 8.1 mph - N/A   Partly Cloudy
1:00 AM 38 °F - 34 °F 81% 29.47 in 31 mi SSW 9.2 mph - -   Clear
1:00 AM 37.4 °F 30.8 °F 33.8 °F 87% 29.44 in 6.2 mi SSW 9.2 mph - N/A   Mostly Cloudy
1:30 AM 37.4 °F 30.8 °F 33.8 °F 87% 29.44 in 6.2 mi SSW 9.2 mph - N/A   Scattered Clouds
2:00 AM 38 °F - 35 °F 83% 29.46 in 25 mi South 10.4 mph - -   Clear
2:00 AM 37.4 °F 30.3 °F 35.6 °F 93% 29.44 in 6.2 mi South 10.4 mph - N/A   Overcast
2:30 AM 37.4 °F 30.3 °F 35.6 °F 93% 29.44 in 6.2 mi South 10.4 mph - N/A   Overcast
3:00 AM 38 °F - 35 °F 84% 29.45 in 22 mi South 9.2 mph - -   Clear
3:00 AM 37.4 °F 30.8 °F 35.6 °F 93% 29.42 in 6.2 mi South 9.2 mph - N/A   Overcast
3:30 AM 37.4 °F 30.8 °F 35.6 °F 93% 29.42 in 6.2 mi South 9.2 mph - N/A   Overcast
4:00 AM 38 °F - 35 °F 82% 29.44 in 25 mi SSW 10.4 mph - -   Clear
4:00 AM 37.4 °F 30.3 °F 33.8 °F 87% 29.42 in 6.2 mi SSW 10.4 mph - N/A   Mostly Cloudy
4:30 AM 37.4 °F 29.3 °F 35.6 °F 93% 29.42 in 6.2 mi South 12.7 mph - N/A   Overcast
5:00 AM 38 °F - 35 °F 83% 29.42 in 28 mi SSW 12.7 mph - -   Clear
5:00 AM 37.4 °F 29.3 °F 35.6 °F 93% 29.39 in 6.2 mi SSW 12.7 mph - N/A   Mostly Cloudy
5:30 AM 39.2 °F 31.6 °F 35.6 °F 87% 29.39 in 6.2 mi SSW 12.7 mph - N/A   Overcast
6:00 AM 39 °F - 35 °F 82% 29.42 in 25 mi SSW 12.7 mph - -   Clear
6:00 AM 39.2 °F 31.6 °F 35.6 °F 87% 29.39 in 6.2 mi SSW 12.7 mph - N/A   Overcast
6:30 AM 39.2 °F 30.5 °F 35.6 °F 87% 29.39 in 6.2 mi SSW 16.1 mph - N/A   Overcast
7:00 AM 39 °F - 36 °F 83% 29.41 in 31 mi SSW 12.7 mph - -   Clear
7:00 AM 39.2 °F 31.6 °F 35.6 °F 87% 29.39 in 6.2 mi SSW 12.7 mph - N/A   Overcast
7:30 AM 39.2 °F 31.6 °F 35.6 °F 87% 29.39 in 6.2 mi SSW 12.7 mph - N/A   Overcast
8:00 AM 40 °F - 36 °F 80% 29.39 in 34 mi SSW 13.8 mph - -   Clear
8:00 AM 41.0 °F 33.5 °F 35.6 °F 81% 29.39 in 6.2 mi SSW 13.8 mph - N/A   Overcast
8:30 AM 41.0 °F 33.9 °F 35.6 °F 81% 29.36 in 6.2 mi South 12.7 mph - N/A   Overcast
9:00 AM 40 °F - 37 °F 85% 29.39 in 17 mi South 12.7 mph - - Rain Light Drizzle
9:00 AM 41.0 °F 33.9 °F 37.4 °F 87% 29.36 in 6.2 mi South 12.7 mph - N/A   Light Drizzle
9:30 AM 41.0 °F 33.5 °F 37.4 °F 87% 29.36 in 6.2 mi South 13.8 mph - N/A Rain Light Rain
10:00 AM 41 °F - 38 °F 85% 29.38 in 22 mi South 11.5 mph - -   Clear
10:00 AM 41.0 °F 34.3 °F 37.4 °F 87% 29.36 in 6.2 mi South 11.5 mph - N/A   Overcast
10:30 AM 41.0 °F 33.5 °F 37.4 °F 87% 29.36 in 6.2 mi South 13.8 mph - N/A   Overcast
11:00 AM 41 °F - 38 °F 86% 29.38 in 12 mi South 12.7 mph - -   Clear
11:00 AM 41.0 °F 33.9 °F 39.2 °F 93% 29.36 in 6.2 mi South 12.7 mph - N/A   Overcast
11:30 AM 42.8 °F 35.8 °F 39.2 °F 87% 29.36 in 6.2 mi SSW 13.8 mph - N/A   Overcast
12:00 PM 43 °F - 38 °F 77% 29.37 in 31 mi SSW 16.1 mph - -   Clear
12:00 PM 42.8 °F 35.1 °F 37.4 °F 81% 29.36 in 6.2 mi SSW 16.1 mph - N/A   Overcast
12:30 PM 42.8 °F 34.8 °F 39.2 °F 87% 29.33 in 6.2 mi SSW 17.3 mph - N/A   Overcast
1:00 PM 44 °F - 38 °F 73% 29.35 in 31 mi South 13.8 mph - -   Clear
1:00 PM 42.8 °F 35.8 °F 39.2 °F 87% 29.33 in 6.2 mi South 13.8 mph - N/A   Overcast
1:30 PM 44.6 °F 36.9 °F 39.2 °F 81% 29.33 in 6.2 mi South 18.4 mph - N/A   Overcast
2:00 PM 44 °F - 39 °F 77% 29.33 in 34 mi South 12.7 mph - -   Clear
2:00 PM 44.6 °F 38.4 °F 39.2 °F 81% 29.30 in 6.2 mi South 12.7 mph - N/A   Overcast
3:00 PM 45 °F - 39 °F 72% 29.31 in 34 mi South 17.3 mph - -   Clear
3:00 PM 44.6 °F 37.2 °F 39.2 °F 81% 29.30 in 6.2 mi South 17.3 mph - N/A   Overcast
3:30 PM 44.6 °F 37.4 °F 39.2 °F 81% 29.27 in 6.2 mi South 16.1 mph - N/A   Overcast
4:00 PM 44 °F - 39 °F 76% 29.30 in 11 mi South 13.8 mph - -   Clear
4:00 PM 44.6 °F 38.1 °F 39.2 °F 81% 29.27 in 6.2 mi South 13.8 mph - N/A   Overcast
4:30 PM 44.6 °F 38.4 °F 39.2 °F 81% 29.27 in 6.2 mi South 12.7 mph - N/A   Overcast
5:00 PM 45 °F - 39 °F 73% 29.30 in 34 mi South 13.8 mph - -   Clear
5:00 PM 44.6 °F 38.1 °F 39.2 °F 81% 29.27 in 6.2 mi South 13.8 mph - N/A   Overcast
5:30 PM 44.6 °F 38.8 °F 39.2 °F 81% 29.27 in 6.2 mi SSE 11.5 mph - N/A   Overcast
6:00 PM 44 °F - 40 °F 80% 29.30 in 9 mi SSE 13.8 mph - - Rain Light Rain
6:00 PM 42.8 °F 35.8 °F 39.2 °F 87% 29.27 in 6.2 mi SSE 13.8 mph - N/A Rain Light Rain
6:30 PM 42.8 °F 36.6 °F 39.2 °F 87% 29.27 in 6.2 mi SSE 11.5 mph - N/A   Overcast
7:00 PM 44 °F - 39 °F 76% 29.30 in 37 mi SSE 11.5 mph - -   Clear
7:00 PM 42.8 °F 36.6 °F 39.2 °F 87% 29.27 in 6.2 mi SSE 11.5 mph - N/A   Overcast
7:30 PM 42.8 °F 36.6 °F 39.2 °F 87% 29.27 in 6.2 mi SSE 11.5 mph - N/A   Overcast
8:00 PM 43 °F - 39 °F 81% 29.30 in 8 mi SSE 13.8 mph - - Rain Light Rain
8:00 PM 42.8 °F 35.8 °F 39.2 °F 87% 29.27 in 6.2 mi SSE 13.8 mph - N/A Rain Light Rain
8:30 PM 42.8 °F 36.6 °F 39.2 °F 87% 29.27 in 6.2 mi SE 11.5 mph - N/A Rain Light Rain
9:00 PM 42 °F - 40 °F 88% 29.29 in 12 mi SSE 10.4 mph - - Rain Light Rain
9:00 PM 42.8 °F 37.0 °F 39.2 °F 87% 29.27 in 6.2 mi SSE 10.4 mph - N/A Rain Light Rain
9:30 PM 42.8 °F 37.0 °F 39.2 °F 87% 29.27 in 6.2 mi SE 10.4 mph - N/A Rain Light Rain
10:00 PM 42 °F - 40 °F 88% 29.29 in 9 mi SE 10.4 mph - - Rain Light Rain
10:00 PM 41.0 °F 34.7 °F 39.2 °F 93% 29.27 in 6.2 mi SE 10.4 mph - N/A Rain Light Rain
10:30 PM 41.0 °F 34.7 °F 39.2 °F 93% 29.27 in 6.2 mi SE 10.4 mph - N/A Rain Light Rain
11:00 PM 41 °F - 39 °F 89% 29.29 in 10 mi SE 11.5 mph - - Rain Light Rain
11:00 PM 41.0 °F 34.3 °F 39.2 °F 93% 29.27 in 6.2 mi SE 11.5 mph - N/A Rain Light Rain
11:30 PM 41.0 °F 34.3 °F 39.2 °F 93% 29.27 in 6.2 mi ESE 11.5 mph - N/A Rain Light Rain